EGQL/ADX METAR and TAF weather

Enter ICAO airport designator
Station Type Date Time Source
EGQL METAR 2019/10/16 19:50 UTC NOAA

EGQL 161950Z 27007KT CAVOK 07/06 Q0999 BLU


Station Type Date Time Source
EGQL Decoded METAR 2019/10/16 19:50 UTC NOAA

Leuchars, United Kingdom (EGQL) 56-23N 002-52W 0M
Oct 16, 2019 - 03:50 PM EDT / 2019.10.16 1950 UTC
Wind: from the W (270 degrees) at 8 MPH (7 KT):0
Visibility: greater than 7 mile(s):0
Temperature: 44 F (7 C)
Dew Point: 42 F (6 C)
Relative Humidity: 93%
Pressure (altimeter): 29.50 in. Hg (0999 hPa)
ob: EGQL 161950Z 27007KT CAVOK 07/06 Q0999 BLU
cycle: 20

Station Type Date Time Source
EGQL TAF 2011/07/27 06:03 UTC NOAA

TAF TAF
AMD EGQL 270424Z 2706/2724 14005KT 9999 BKN020 PROB30
TEMPO 2706/2708 SCT012
BECMG 2708/2710 SCT025

Example: see airport list